Terminal Aerodrome Forecast
Issued by NWS

Home | Current Version | Previous Version | Text Only | Print | Product List | Glossary On
Versions: 1 2 3 4 5 6 7 8 9 10 11 12 13 14
917
FTUS45 KTFX 272330
TAFGTF
TAF
KGTF 272330Z 2800/2824 24018G25KT P6SM SCT090 BKN150
     FM280300 22008KT P6SM BKN150
     FM281800 28008KT P6SM SCT150=

USA.gov is the U.S. government's official web portal to all federal, state and local government web resources and services.